sensor_id;sensor_type;location;lat;lon;timestamp;noise_LAeq;noise_LA_min;noise_LA_max;noise_LA01;noise_LA95
43787;Laerm;29409;49.306;8.500;2023-08-20T00:00:35;43.28;41.96;44.69;;
43787;Laerm;29409;49.306;8.500;2023-08-20T00:01:35;43.26;41.75;47.63;;
43787;Laerm;29409;49.306;8.500;2023-08-20T00:02:36;43.31;41.68;44.43;;
43787;Laerm;29409;49.306;8.500;2023-08-20T00:03:37;43.17;41.61;44.27;;
43787;Laerm;29409;49.306;8.500;2023-08-20T00:04:38;43.11;41.38;44.76;;
43787;Laerm;29409;49.306;8.500;2023-08-20T00:05:40;41.35;37.88;43.77;;
43787;Laerm;29409;49.306;8.500;2023-08-20T00:06:40;40.41;37.70;43.72;;
43787;Laerm;29409;49.306;8.500;2023-08-20T00:07:43;40.38;36.91;44.11;;
43787;Laerm;29409;49.306;8.500;2023-08-20T00:08:43;40.64;36.69;51.61;;
43787;Laerm;29409;49.306;8.500;2023-08-20T00:09:44;39.68;36.69;42.29;;
43787;Laerm;29409;49.306;8.500;2023-08-20T00:10:44;40.61;36.98;46.48;;
43787;Laerm;29409;49.306;8.500;2023-08-20T00:11:44;39.53;36.45;41.89;;
43787;Laerm;29409;49.306;8.500;2023-08-20T00:12:45;40.10;36.91;44.58;;
43787;Laerm;29409;49.306;8.500;2023-08-20T00:13:46;39.59;36.69;42.03;;
43787;Laerm;29409;49.306;8.500;2023-08-20T00:15:53;39.89;36.91;45.30;;
43787;Laerm;29409;49.306;8.500;2023-08-20T00:16:54;40.04;36.91;42.65;;
43787;Laerm;29409;49.306;8.500;2023-08-20T00:17:55;39.83;36.45;42.47;;
43787;Laerm;29409;49.306;8.500;2023-08-20T00:18:55;40.54;36.45;44.07;;
43787;Laerm;29409;49.306;8.500;2023-08-20T00:19:56;39.74;36.91;43.68;;
43787;Laerm;29409;49.306;8.500;2023-08-20T00:20:56;40.14;36.91;42.59;;
43787;Laerm;29409;49.306;8.500;2023-08-20T00:21:57;39.94;32.35;43.19;;
43787;Laerm;29409;49.306;8.500;2023-08-20T00:22:57;40.27;35.86;46.13;;
43787;Laerm;29409;49.306;8.500;2023-08-20T00:23:58;39.74;34.69;43.81;;
43787;Laerm;29409;49.306;8.500;2023-08-20T00:24:58;39.82;36.91;42.59;;
43787;Laerm;29409;49.306;8.500;2023-08-20T00:25:58;39.32;35.36;41.82;;
43787;Laerm;29409;49.306;8.500;2023-08-20T00:26:59;42.02;36.91;44.58;;
43787;Laerm;29409;49.306;8.500;2023-08-20T00:28:15;43.50;41.75;44.51;;
43787;Laerm;29409;49.306;8.500;2023-08-20T00:29:18;43.58;41.14;45.66;;
43787;Laerm;29409;49.306;8.500;2023-08-20T00:30:19;42.78;41.22;44.58;;
43787;Laerm;29409;49.306;8.500;2023-08-20T00:31:19;42.71;40.43;45.45;;
43787;Laerm;29409;49.306;8.500;2023-08-20T00:32:20;42.66;39.70;44.27;;
43787;Laerm;29409;49.306;8.500;2023-08-20T00:33:20;42.66;40.71;43.94;;
43787;Laerm;29409;49.306;8.500;2023-08-20T00:34:20;42.71;40.98;44.07;;
43787;Laerm;29409;49.306;8.500;2023-08-20T00:35:21;43.01;41.38;45.04;;
43787;Laerm;29409;49.306;8.500;2023-08-20T00:36:22;42.78;40.98;43.94;;
43787;Laerm;29409;49.306;8.500;2023-08-20T00:37:22;42.63;41.14;43.86;;
43787;Laerm;29409;49.306;8.500;2023-08-20T00:38:22;42.43;40.43;46.13;;
43787;Laerm;29409;49.306;8.500;2023-08-20T00:39:23;42.42;40.23;43.94;;
43787;Laerm;29409;49.306;8.500;2023-08-20T00:40:23;42.17;40.43;43.44;;
43787;Laerm;29409;49.306;8.500;2023-08-20T00:41:23;42.53;40.43;45.23;;
43787;Laerm;29409;49.306;8.500;2023-08-20T00:42:24;42.23;40.53;43.68;;
43787;Laerm;29409;49.306;8.500;2023-08-20T00:43:27;42.18;40.53;43.49;;
43787;Laerm;29409;49.306;8.500;2023-08-20T00:44:27;42.23;39.92;43.44;;
43787;Laerm;29409;49.306;8.500;2023-08-20T00:45:28;42.20;39.81;43.54;;
43787;Laerm;29409;49.306;8.500;2023-08-20T00:46:28;42.20;40.71;43.55;;
43787;Laerm;29409;49.306;8.500;2023-08-20T00:47:28;42.31;40.62;45.01;;
43787;Laerm;29409;49.306;8.500;2023-08-20T00:48:29;40.76;37.52;45.01;;
43787;Laerm;29409;49.306;8.500;2023-08-20T00:49:29;39.91;36.69;42.65;;
43787;Laerm;29409;49.306;8.500;2023-08-20T00:50:30;39.41;36.56;43.24;;
43787;Laerm;29409;49.306;8.500;2023-08-20T00:51:32;39.91;37.32;42.22;;
43787;Laerm;29409;49.306;8.500;2023-08-20T00:52:33;39.67;36.45;41.89;;
43787;Laerm;29409;49.306;8.500;2023-08-20T00:53:34;39.62;35.94;42.71;;
43787;Laerm;29409;49.306;8.500;2023-08-20T00:54:34;39.81;36.69;42.53;;
43787;Laerm;29409;49.306;8.500;2023-08-20T00:55:35;40.27;35.04;44.69;;
43787;Laerm;29409;49.306;8.500;2023-08-20T00:56:36;41.62;33.44;45.33;;
43787;Laerm;29409;49.306;8.500;2023-08-20T00:57:37;40.02;36.91;42.22;;
43787;Laerm;29409;49.306;8.500;2023-08-20T00:58:38;40.04;37.52;43.63;;
43787;Laerm;29409;49.306;8.500;2023-08-20T00:59:41;40.24;36.91;44.58;;
43787;Laerm;29409;49.306;8.500;2023-08-20T01:00:41;40.20;37.12;43.63;;
43787;Laerm;29409;49.306;8.500;2023-08-20T01:01:42;40.17;37.12;42.41;;
43787;Laerm;29409;49.306;8.500;2023-08-20T01:02:43;39.89;36.20;42.03;;
43787;Laerm;29409;49.306;8.500;2023-08-20T01:03:43;40.05;36.45;42.82;;
43787;Laerm;29409;49.306;8.500;2023-08-20T01:04:43;40.27;37.32;42.53;;
43787;Laerm;29409;49.306;8.500;2023-08-20T01:05:46;40.08;37.32;42.82;;
43787;Laerm;29409;49.306;8.500;2023-08-20T01:08:57;40.02;36.69;44.27;;
43787;Laerm;29409;49.306;8.500;2023-08-20T01:10:12;39.55;35.04;42.53;;
43787;Laerm;29409;49.306;8.500;2023-08-20T01:11:17;40.49;36.45;45.11;;
43787;Laerm;29409;49.306;8.500;2023-08-20T01:12:21;40.02;36.20;42.82;;
43787;Laerm;29409;49.306;8.500;2023-08-20T01:13:22;39.98;36.91;42.98;;
43787;Laerm;29409;49.306;8.500;2023-08-20T01:14:23;39.82;35.36;43.19;;
43787;Laerm;29409;49.306;8.500;2023-08-20T01:15:23;39.75;36.45;41.89;;
43787;Laerm;29409;49.306;8.500;2023-08-20T01:16:24;39.83;36.20;41.82;;
43787;Laerm;29409;49.306;8.500;2023-08-20T01:17:24;41.19;36.45;44.47;;
43787;Laerm;29409;49.306;8.500;2023-08-20T01:18:25;43.33;41.30;44.43;;
43787;Laerm;29409;49.306;8.500;2023-08-20T01:19:25;43.59;42.22;45.04;;
43787;Laerm;29409;49.306;8.500;2023-08-20T01:20:27;42.91;40.71;45.63;;
43787;Laerm;29409;49.306;8.500;2023-08-20T01:21:37;42.59;40.71;43.81;;
43787;Laerm;29409;49.306;8.500;2023-08-20T01:22:59;42.91;41.14;45.99;;
43787;Laerm;29409;49.306;8.500;2023-08-20T01:28:35;39.77;36.69;42.59;;
43787;Laerm;29409;49.306;8.500;2023-08-20T01:29:36;41.10;38.05;44.69;;
43787;Laerm;29409;49.306;8.500;2023-08-20T01:30:36;46.50;36.91;77.80;;
43787;Laerm;29409;49.306;8.500;2023-08-20T01:31:37;39.96;36.69;42.76;;
43787;Laerm;29409;49.306;8.500;2023-08-20T01:32:38;39.94;36.45;42.29;;
43787;Laerm;29409;49.306;8.500;2023-08-20T01:33:42;40.06;37.12;42.82;;
43787;Laerm;29409;49.306;8.500;2023-08-20T01:34:42;40.04;36.45;42.74;;
43787;Laerm;29409;49.306;8.500;2023-08-20T01:35:43;40.10;36.91;42.65;;
43787;Laerm;29409;49.306;8.500;2023-08-20T01:36:43;39.85;36.69;42.16;;
43787;Laerm;29409;49.306;8.500;2023-08-20T01:37:43;39.77;36.91;42.35;;
43787;Laerm;29409;49.306;8.500;2023-08-20T01:38:43;39.70;36.69;42.29;;
43787;Laerm;29409;49.306;8.500;2023-08-20T01:39:44;39.90;36.69;42.47;;
43787;Laerm;29409;49.306;8.500;2023-08-20T01:40:44;39.97;36.45;42.29;;
43787;Laerm;29409;49.306;8.500;2023-08-20T01:41:44;39.60;35.94;41.75;;
43787;Laerm;29409;49.306;8.500;2023-08-20T01:42:45;39.35;36.45;42.09;;
43787;Laerm;29409;49.306;8.500;2023-08-20T01:43:45;39.43;33.90;41.68;;
43787;Laerm;29409;49.306;8.500;2023-08-20T01:44:45;39.81;35.94;42.41;;
43787;Laerm;29409;49.306;8.500;2023-08-20T01:45:45;39.35;35.59;41.68;;
43787;Laerm;29409;49.306;8.500;2023-08-20T01:46:46;39.98;35.04;42.71;;
43787;Laerm;29409;49.306;8.500;2023-08-20T01:47:46;39.95;36.56;42.76;;
43787;Laerm;29409;49.306;8.500;2023-08-20T01:48:46;39.98;34.69;49.97;;
43787;Laerm;29409;49.306;8.500;2023-08-20T01:49:47;39.35;34.31;41.68;;
43787;Laerm;29409;49.306;8.500;2023-08-20T01:50:47;39.41;34.31;41.89;;
43787;Laerm;29409;49.306;8.500;2023-08-20T01:51:47;39.48;34.31;42.03;;
43787;Laerm;29409;49.306;8.500;2023-08-20T01:52:47;39.46;34.31;42.16;;
43787;Laerm;29409;49.306;8.500;2023-08-20T01:53:48;39.84;36.69;42.16;;
43787;Laerm;29409;49.306;8.500;2023-08-20T01:54:48;39.85;36.20;41.96;;
43787;Laerm;29409;49.306;8.500;2023-08-20T01:55:48;40.78;36.20;43.99;;
43787;Laerm;29409;49.306;8.500;2023-08-20T01:56:49;39.70;36.45;42.71;;
43787;Laerm;29409;49.306;8.500;2023-08-20T01:57:49;40.09;36.69;43.63;;
43787;Laerm;29409;49.306;8.500;2023-08-20T01:58:49;39.69;36.91;41.75;;
43787;Laerm;29409;49.306;8.500;2023-08-20T01:59:50;39.61;35.66;42.53;;
43787;Laerm;29409;49.306;8.500;2023-08-20T02:00:50;39.41;32.35;41.61;;
43787;Laerm;29409;49.306;8.500;2023-08-20T02:01:51;39.40;35.66;42.03;;
43787;Laerm;29409;49.306;8.500;2023-08-20T02:02:51;39.46;36.20;42.22;;
43787;Laerm;29409;49.306;8.500;2023-08-20T02:03:52;39.28;36.20;41.82;;
43787;Laerm;29409;49.306;8.500;2023-08-20T02:04:52;39.36;35.04;41.82;;
43787;Laerm;29409;49.306;8.500;2023-08-20T02:05:52;38.97;35.94;41.22;;
43787;Laerm;29409;49.306;8.500;2023-08-20T02:06:52;39.07;35.04;41.22;;
43787;Laerm;29409;49.306;8.500;2023-08-20T02:07:53;39.23;35.04;41.96;;
43787;Laerm;29409;49.306;8.500;2023-08-20T02:08:53;39.50;35.94;42.22;;
43787;Laerm;29409;49.306;8.500;2023-08-20T02:09:54;39.66;36.45;42.03;;
43787;Laerm;29409;49.306;8.500;2023-08-20T02:11:03;39.58;36.69;41.53;;
43787;Laerm;29409;49.306;8.500;2023-08-20T02:12:04;39.63;36.91;42.65;;
43787;Laerm;29409;49.306;8.500;2023-08-20T02:13:04;40.50;36.91;43.29;;
43787;Laerm;29409;49.306;8.500;2023-08-20T02:14:05;39.91;33.55;44.90;;
43787;Laerm;29409;49.306;8.500;2023-08-20T02:15:05;40.24;36.45;45.91;;
43787;Laerm;29409;49.306;8.500;2023-08-20T02:16:06;39.70;35.94;42.76;;
43787;Laerm;29409;49.306;8.500;2023-08-20T02:17:07;40.20;36.20;43.04;;
43787;Laerm;29409;49.306;8.500;2023-08-20T02:18:08;39.87;36.20;42.76;;
43787;Laerm;29409;49.306;8.500;2023-08-20T02:19:19;39.84;35.59;42.47;;
43787;Laerm;29409;49.306;8.500;2023-08-20T02:20:39;39.65;35.94;42.29;;
43787;Laerm;29409;49.306;8.500;2023-08-20T02:21:47;41.52;35.94;44.27;;
43787;Laerm;29409;49.306;8.500;2023-08-20T02:22:48;43.30;41.30;44.47;;
43787;Laerm;29409;49.306;8.500;2023-08-20T02:23:48;43.48;40.23;44.87;;
43787;Laerm;29409;49.306;8.500;2023-08-20T02:24:48;42.62;40.62;43.86;;
43787;Laerm;29409;49.306;8.500;2023-08-20T02:25:49;42.63;40.80;43.72;;
43787;Laerm;29409;49.306;8.500;2023-08-20T02:26:49;42.60;40.62;43.99;;
43787;Laerm;29409;49.306;8.500;2023-08-20T02:27:49;42.80;40.53;44.03;;
43787;Laerm;29409;49.306;8.500;2023-08-20T02:28:50;42.84;40.71;44.47;;
43787;Laerm;29409;49.306;8.500;2023-08-20T02:29:50;43.08;40.89;47.77;;
43787;Laerm;29409;49.306;8.500;2023-08-20T02:30:51;42.81;41.14;43.90;;
43787;Laerm;29409;49.306;8.500;2023-08-20T02:31:51;42.80;41.06;43.94;;
43787;Laerm;29409;49.306;8.500;2023-08-20T02:32:52;42.84;40.23;45.20;;
43787;Laerm;29409;49.306;8.500;2023-08-20T02:33:52;42.82;40.71;43.90;;
43787;Laerm;29409;49.306;8.500;2023-08-20T02:34:53;42.57;39.21;44.03;;
43787;Laerm;29409;49.306;8.500;2023-08-20T02:36:00;42.20;40.71;43.63;;
43787;Laerm;29409;49.306;8.500;2023-08-20T02:37:01;42.23;38.81;43.58;;
43787;Laerm;29409;49.306;8.500;2023-08-20T02:38:02;42.49;40.33;43.94;;
43787;Laerm;29409;49.306;8.500;2023-08-20T02:39:02;42.29;39.81;43.77;;
43787;Laerm;29409;49.306;8.500;2023-08-20T02:40:07;42.33;39.08;44.07;;
43787;Laerm;29409;49.306;8.500;2023-08-20T02:41:08;42.33;38.52;43.63;;
43787;Laerm;29409;49.306;8.500;2023-08-20T02:42:08;42.28;40.33;47.08;;
43787;Laerm;29409;49.306;8.500;2023-08-20T02:43:09;42.21;40.23;43.58;;
43787;Laerm;29409;49.306;8.500;2023-08-20T02:44:09;42.12;39.92;43.77;;
43787;Laerm;29409;49.306;8.500;2023-08-20T02:45:10;42.19;38.95;43.81;;
43787;Laerm;29409;49.306;8.500;2023-08-20T02:46:10;42.37;40.23;44.87;;
43787;Laerm;29409;49.306;8.500;2023-08-20T02:47:10;41.84;39.21;45.07;;
43787;Laerm;29409;49.306;8.500;2023-08-20T02:48:10;39.94;36.91;42.71;;
43787;Laerm;29409;49.306;8.500;2023-08-20T02:49:11;39.89;36.91;41.68;;
43787;Laerm;29409;49.306;8.500;2023-08-20T02:50:12;39.84;37.12;42.03;;
43787;Laerm;29409;49.306;8.500;2023-08-20T02:51:12;40.35;34.69;43.24;;
43787;Laerm;29409;49.306;8.500;2023-08-20T02:52:12;40.49;37.32;43.04;;
43787;Laerm;29409;49.306;8.500;2023-08-20T02:53:12;40.07;37.32;42.03;;
43787;Laerm;29409;49.306;8.500;2023-08-20T02:54:13;40.25;37.70;46.48;;
43787;Laerm;29409;49.306;8.500;2023-08-20T02:55:13;40.29;37.35;42.59;;
43787;Laerm;29409;49.306;8.500;2023-08-20T02:56:14;39.99;37.32;42.41;;
43787;Laerm;29409;49.306;8.500;2023-08-20T02:57:14;40.16;35.04;44.51;;
43787;Laerm;29409;49.306;8.500;2023-08-20T02:58:14;41.69;37.12;52.57;;
43787;Laerm;29409;49.306;8.500;2023-08-20T02:59:15;40.26;38.05;42.22;;
43787;Laerm;29409;49.306;8.500;2023-08-20T03:00:15;40.09;36.91;42.71;;
43787;Laerm;29409;49.306;8.500;2023-08-20T03:01:22;40.45;37.32;42.93;;
43787;Laerm;29409;49.306;8.500;2023-08-20T03:02:23;39.96;35.86;42.29;;
43787;Laerm;29409;49.306;8.500;2023-08-20T03:03:23;39.87;36.91;42.47;;
43787;Laerm;29409;49.306;8.500;2023-08-20T03:04:23;40.56;35.36;43.14;;
43787;Laerm;29409;49.306;8.500;2023-08-20T03:05:24;39.83;35.86;42.47;;
43787;Laerm;29409;49.306;8.500;2023-08-20T03:06:24;39.80;36.45;42.16;;
43787;Laerm;29409;49.306;8.500;2023-08-20T03:07:24;39.66;34.69;41.46;;
43787;Laerm;29409;49.306;8.500;2023-08-20T03:08:24;39.71;34.69;42.22;;
43787;Laerm;29409;49.306;8.500;2023-08-20T03:09:25;39.50;35.36;41.96;;
43787;Laerm;29409;49.306;8.500;2023-08-20T03:10:26;39.89;35.36;43.54;;
43787;Laerm;29409;49.306;8.500;2023-08-20T03:11:26;40.33;34.69;43.44;;
43787;Laerm;29409;49.306;8.500;2023-08-20T03:12:27;40.37;34.31;45.66;;
43787;Laerm;29409;49.306;8.500;2023-08-20T03:13:27;39.79;35.04;42.29;;
43787;Laerm;29409;49.306;8.500;2023-08-20T03:14:27;40.68;36.20;43.37;;
43787;Laerm;29409;49.306;8.500;2023-08-20T03:15:28;40.31;36.69;42.76;;
43787;Laerm;29409;49.306;8.500;2023-08-20T03:16:28;39.72;36.91;42.22;;
43787;Laerm;29409;49.306;8.500;2023-08-20T03:17:28;39.78;36.69;41.96;;
43787;Laerm;29409;49.306;8.500;2023-08-20T03:18:29;40.26;35.36;44.47;;
43787;Laerm;29409;49.306;8.500;2023-08-20T03:19:33;42.04;37.88;54.98;;
43787;Laerm;29409;49.306;8.500;2023-08-20T03:20:34;40.50;37.70;42.88;;
43787;Laerm;29409;49.306;8.500;2023-08-20T03:21:35;40.09;35.94;42.93;;
43787;Laerm;29409;49.306;8.500;2023-08-20T03:22:36;39.64;35.04;45.63;;
43787;Laerm;29409;49.306;8.500;2023-08-20T03:23:36;40.34;32.93;51.78;;
43787;Laerm;29409;49.306;8.500;2023-08-20T03:24:37;40.04;34.69;43.29;;
43787;Laerm;29409;49.306;8.500;2023-08-20T03:25:37;39.97;35.04;42.53;;
43787;Laerm;29409;49.306;8.500;2023-08-20T03:26:38;41.90;36.91;47.54;;
43787;Laerm;29409;49.306;8.500;2023-08-20T03:27:38;40.33;37.32;43.72;;
43787;Laerm;29409;49.306;8.500;2023-08-20T03:28:39;40.39;37.32;43.68;;
43787;Laerm;29409;49.306;8.500;2023-08-20T03:29:39;40.49;37.12;42.71;;
43787;Laerm;29409;49.306;8.500;2023-08-20T03:30:39;40.90;38.21;43.24;;
43787;Laerm;29409;49.306;8.500;2023-08-20T03:31:39;40.94;36.10;47.42;;
43787;Laerm;29409;49.306;8.500;2023-08-20T03:32:40;39.61;35.66;42.16;;
43787;Laerm;29409;49.306;8.500;2023-08-20T03:33:40;39.27;35.31;41.61;;
43787;Laerm;29409;49.306;8.500;2023-08-20T03:34:40;39.90;36.20;42.82;;
43787;Laerm;29409;49.306;8.500;2023-08-20T03:35:40;40.41;36.91;43.77;;
43787;Laerm;29409;49.306;8.500;2023-08-20T03:36:41;39.96;36.91;50.40;;
43787;Laerm;29409;49.306;8.500;2023-08-20T03:37:41;40.57;36.20;42.76;;
43787;Laerm;29409;49.306;8.500;2023-08-20T03:38:41;41.07;37.12;46.23;;
43787;Laerm;29409;49.306;8.500;2023-08-20T03:39:42;39.91;37.12;42.29;;
43787;Laerm;29409;49.306;8.500;2023-08-20T03:40:42;40.48;35.04;44.69;;
43787;Laerm;29409;49.306;8.500;2023-08-20T03:41:43;39.59;36.45;42.03;;
43787;Laerm;29409;49.306;8.500;2023-08-20T03:42:43;39.73;37.12;42.16;;
43787;Laerm;29409;49.306;8.500;2023-08-20T03:43:44;39.67;36.91;42.41;;
43787;Laerm;29409;49.306;8.500;2023-08-20T03:44:44;39.95;36.91;42.53;;
43787;Laerm;29409;49.306;8.500;2023-08-20T03:45:44;39.57;36.91;42.03;;
43787;Laerm;29409;49.306;8.500;2023-08-20T03:46:44;39.70;36.69;42.71;;
43787;Laerm;29409;49.306;8.500;2023-08-20T03:47:45;39.85;37.32;42.64;;
43787;Laerm;29409;49.306;8.500;2023-08-20T03:48:47;40.16;37.52;42.22;;
43787;Laerm;29409;49.306;8.500;2023-08-20T03:49:47;40.51;38.21;42.59;;
43787;Laerm;29409;49.306;8.500;2023-08-20T03:50:54;45.80;35.66;76.52;;
43787;Laerm;29409;49.306;8.500;2023-08-20T03:52:22;41.39;36.91;53.06;;
43787;Laerm;29409;49.306;8.500;2023-08-20T03:53:33;43.35;41.75;46.35;;
43787;Laerm;29409;49.306;8.500;2023-08-20T03:54:33;43.23;40.43;44.86;;
43787;Laerm;29409;49.306;8.500;2023-08-20T03:55:34;42.54;40.89;46.84;;
43787;Laerm;29409;49.306;8.500;2023-08-20T03:56:34;42.30;40.80;43.58;;
43787;Laerm;29409;49.306;8.500;2023-08-20T03:57:35;43.08;40.71;47.40;;
43787;Laerm;29409;49.306;8.500;2023-08-20T03:58:35;42.55;41.06;43.72;;
43787;Laerm;29409;49.306;8.500;2023-08-20T03:59:35;42.71;40.98;45.11;;
43787;Laerm;29409;49.306;8.500;2023-08-20T04:00:35;42.47;41.03;44.90;;
43787;Laerm;29409;49.306;8.500;2023-08-20T04:01:36;42.78;40.89;45.45;;
43787;Laerm;29409;49.306;8.500;2023-08-20T04:02:36;42.51;40.62;43.68;;
43787;Laerm;29409;49.306;8.500;2023-08-20T04:03:37;42.58;40.98;43.90;;
43787;Laerm;29409;49.306;8.500;2023-08-20T04:04:37;42.46;40.98;44.58;;
43787;Laerm;29409;49.306;8.500;2023-08-20T04:05:37;43.30;41.14;47.30;;
43787;Laerm;29409;49.306;8.500;2023-08-20T04:06:38;42.83;40.33;46.76;;
43787;Laerm;29409;49.306;8.500;2023-08-20T04:07:38;42.77;40.13;46.87;;
43787;Laerm;29409;49.306;8.500;2023-08-20T04:08:39;44.82;40.33;59.55;;
43787;Laerm;29409;49.306;8.500;2023-08-20T04:09:39;43.44;40.13;54.73;;
43787;Laerm;29409;49.306;8.500;2023-08-20T04:10:43;42.19;40.23;43.86;;
43787;Laerm;29409;49.306;8.500;2023-08-20T04:11:44;42.29;40.33;44.69;;
43787;Laerm;29409;49.306;8.500;2023-08-20T04:12:44;41.93;39.92;43.34;;
43787;Laerm;29409;49.306;8.500;2023-08-20T04:13:45;42.10;40.23;44.58;;
43787;Laerm;29409;49.306;8.500;2023-08-20T04:14:45;42.24;40.18;43.86;;
43787;Laerm;29409;49.306;8.500;2023-08-20T04:15:46;42.60;40.23;46.50;;
43787;Laerm;29409;49.306;8.500;2023-08-20T04:16:46;42.52;40.33;46.28;;
43787;Laerm;29409;49.306;8.500;2023-08-20T04:17:46;41.92;39.21;44.90;;
43787;Laerm;29409;49.306;8.500;2023-08-20T04:18:47;41.71;38.37;44.83;;
43787;Laerm;29409;49.306;8.500;2023-08-20T04:19:48;42.00;38.95;48.58;;
43787;Laerm;29409;49.306;8.500;2023-08-20T04:20:51;41.82;38.47;44.58;;
43787;Laerm;29409;49.306;8.500;2023-08-20T04:21:52;42.14;39.35;44.35;;
43787;Laerm;29409;49.306;8.500;2023-08-20T04:22:52;42.14;38.52;47.70;;
43787;Laerm;29409;49.306;8.500;2023-08-20T04:23:53;41.43;39.08;46.87;;
43787;Laerm;29409;49.306;8.500;2023-08-20T04:24:53;41.30;38.52;43.94;;
43787;Laerm;29409;49.306;8.500;2023-08-20T04:25:53;41.67;38.21;43.90;;
43787;Laerm;29409;49.306;8.500;2023-08-20T04:26:53;42.03;39.46;44.07;;
43787;Laerm;29409;49.306;8.500;2023-08-20T04:27:54;41.88;38.21;49.23;;
43787;Laerm;29409;49.306;8.500;2023-08-20T04:28:54;41.24;38.52;46.28;;
43787;Laerm;29409;49.306;8.500;2023-08-20T04:29:54;42.16;38.37;46.25;;
43787;Laerm;29409;49.306;8.500;2023-08-20T04:30:54;41.08;38.52;47.79;;
43787;Laerm;29409;49.306;8.500;2023-08-20T04:31:56;40.62;37.70;47.77;;
43787;Laerm;29409;49.306;8.500;2023-08-20T04:32:56;41.09;37.70;49.98;;
43787;Laerm;29409;49.306;8.500;2023-08-20T04:33:56;40.27;38.05;43.29;;
43787;Laerm;29409;49.306;8.500;2023-08-20T04:34:57;41.38;38.05;46.28;;
43787;Laerm;29409;49.306;8.500;2023-08-20T04:35:57;40.96;38.02;45.97;;
43787;Laerm;29409;49.306;8.500;2023-08-20T04:36:57;41.02;37.70;46.25;;
43787;Laerm;29409;49.306;8.500;2023-08-20T04:37:57;41.82;38.95;46.80;;
43787;Laerm;29409;49.306;8.500;2023-08-20T04:38:58;41.91;38.37;49.33;;
43787;Laerm;29409;49.306;8.500;2023-08-20T04:39:58;41.71;38.47;48.49;;
43787;Laerm;29409;49.306;8.500;2023-08-20T04:40:58;42.01;39.46;45.45;;
43787;Laerm;29409;49.306;8.500;2023-08-20T04:41:59;41.94;39.21;45.60;;
43787;Laerm;29409;49.306;8.500;2023-08-20T04:43:00;41.83;38.81;45.66;;
43787;Laerm;29409;49.306;8.500;2023-08-20T04:44:00;40.88;37.32;45.25;;
43787;Laerm;29409;49.306;8.500;2023-08-20T04:45:00;40.69;37.88;45.63;;
43787;Laerm;29409;49.306;8.500;2023-08-20T04:46:01;41.20;38.21;44.15;;
43787;Laerm;29409;49.306;8.500;2023-08-20T04:47:01;41.85;38.52;46.25;;
43787;Laerm;29409;49.306;8.500;2023-08-20T04:48:01;40.31;37.88;42.65;;
43787;Laerm;29409;49.306;8.500;2023-08-20T04:49:02;40.93;37.88;46.57;;
43787;Laerm;29409;49.306;8.500;2023-08-20T04:50:03;40.96;37.88;47.28;;
43787;Laerm;29409;49.306;8.500;2023-08-20T04:51:05;43.08;38.67;45.40;;
43787;Laerm;29409;49.306;8.500;2023-08-20T04:52:05;41.53;37.70;44.72;;
43787;Laerm;29409;49.306;8.500;2023-08-20T04:53:06;40.37;36.69;44.11;;
43787;Laerm;29409;49.306;8.500;2023-08-20T04:54:06;40.63;36.91;45.54;;
43787;Laerm;29409;49.306;8.500;2023-08-20T04:55:06;41.23;38.21;44.07;;
43787;Laerm;29409;49.306;8.500;2023-08-20T04:56:07;40.77;37.32;44.54;;
43787;Laerm;29409;49.306;8.500;2023-08-20T04:57:08;40.84;37.88;44.08;;
43787;Laerm;29409;49.306;8.500;2023-08-20T04:58:08;40.95;36.20;45.07;;
43787;Laerm;29409;49.306;8.500;2023-08-20T04:59:09;41.18;38.37;45.36;;
43787;Laerm;29409;49.306;8.500;2023-08-20T05:00:09;41.37;38.05;48.57;;
43787;Laerm;29409;49.306;8.500;2023-08-20T05:01:10;42.95;39.68;48.74;;
43787;Laerm;29409;49.306;8.500;2023-08-20T05:02:11;43.63;38.67;52.70;;
43787;Laerm;29409;49.306;8.500;2023-08-20T05:03:11;43.02;37.52;52.40;;
43787;Laerm;29409;49.306;8.500;2023-08-20T05:04:14;45.12;39.70;55.77;;
43787;Laerm;29409;49.306;8.500;2023-08-20T05:05:14;44.54;39.58;52.27;;
43787;Laerm;29409;49.306;8.500;2023-08-20T05:06:15;41.10;37.88;44.97;;
43787;Laerm;29409;49.306;8.500;2023-08-20T05:07:15;42.00;38.05;45.45;;
43787;Laerm;29409;49.306;8.500;2023-08-20T05:08:15;41.53;38.21;45.33;;
43787;Laerm;29409;49.306;8.500;2023-08-20T05:09:16;41.48;38.21;51.77;;
43787;Laerm;29409;49.306;8.500;2023-08-20T05:10:16;41.21;38.81;43.60;;
43787;Laerm;29409;49.306;8.500;2023-08-20T05:11:16;41.17;37.88;45.04;;
43787;Laerm;29409;49.306;8.500;2023-08-20T05:12:17;40.56;37.52;44.03;;
43787;Laerm;29409;49.306;8.500;2023-08-20T05:13:17;40.60;37.32;50.80;;
43787;Laerm;29409;49.306;8.500;2023-08-20T05:14:18;41.17;37.12;52.62;;
43787;Laerm;29409;49.306;8.500;2023-08-20T05:15:18;41.79;37.52;53.51;;
43787;Laerm;29409;49.306;8.500;2023-08-20T05:16:18;42.43;38.21;54.40;;
43787;Laerm;29409;49.306;8.500;2023-08-20T05:17:18;41.04;37.88;46.23;;
43787;Laerm;29409;49.306;8.500;2023-08-20T05:18:19;42.49;39.21;49.47;;
43787;Laerm;29409;49.306;8.500;2023-08-20T05:19:20;41.81;38.95;48.69;;
43787;Laerm;29409;49.306;8.500;2023-08-20T05:20:20;41.11;38.37;45.04;;
43787;Laerm;29409;49.306;8.500;2023-08-20T05:21:20;41.43;38.37;44.54;;
43787;Laerm;29409;49.306;8.500;2023-08-20T05:22:20;41.59;38.52;44.16;;
43787;Laerm;29409;49.306;8.500;2023-08-20T05:23:21;41.82;38.37;43.99;;
43787;Laerm;29409;49.306;8.500;2023-08-20T05:24:21;41.32;38.67;43.44;;
43787;Laerm;29409;49.306;8.500;2023-08-20T05:25:22;40.70;37.88;44.39;;
43787;Laerm;29409;49.306;8.500;2023-08-20T05:26:22;40.80;37.52;43.37;;
43787;Laerm;29409;49.306;8.500;2023-08-20T05:27:23;41.36;38.05;44.73;;
43787;Laerm;29409;49.306;8.500;2023-08-20T05:28:23;41.89;38.95;44.52;;
43787;Laerm;29409;49.306;8.500;2023-08-20T05:29:23;42.18;39.34;45.42;;
43787;Laerm;29409;49.306;8.500;2023-08-20T05:30:23;42.50;39.81;44.69;;
43787;Laerm;29409;49.306;8.500;2023-08-20T05:31:23;42.99;40.43;44.90;;
43787;Laerm;29409;49.306;8.500;2023-08-20T05:32:24;43.86;42.22;45.66;;
43787;Laerm;29409;49.306;8.500;2023-08-20T05:33:24;43.78;41.82;46.23;;
43787;Laerm;29409;49.306;8.500;2023-08-20T05:34:25;52.34;41.75;71.22;;
43787;Laerm;29409;49.306;8.500;2023-08-20T05:35:25;44.63;41.38;51.77;;
43787;Laerm;29409;49.306;8.500;2023-08-20T05:36:25;43.72;42.09;53.69;;
43787;Laerm;29409;49.306;8.500;2023-08-20T05:37:25;43.60;42.09;44.76;;
43787;Laerm;29409;49.306;8.500;2023-08-20T05:38:26;45.51;42.29;57.14;;
43787;Laerm;29409;49.306;8.500;2023-08-20T05:39:26;46.47;42.03;63.37;;
43787;Laerm;29409;49.306;8.500;2023-08-20T05:40:27;43.81;42.41;46.45;;
43787;Laerm;29409;49.306;8.500;2023-08-20T05:41:27;43.85;42.53;46.64;;
43787;Laerm;29409;49.306;8.500;2023-08-20T05:42:27;48.58;42.65;68.33;;
43787;Laerm;29409;49.306;8.500;2023-08-20T05:43:28;43.78;42.16;47.18;;
43787;Laerm;29409;49.306;8.500;2023-08-20T05:44:28;43.27;41.68;45.66;;
43787;Laerm;29409;49.306;8.500;2023-08-20T05:45:28;43.46;42.19;48.91;;
43787;Laerm;29409;49.306;8.500;2023-08-20T05:46:29;43.24;41.75;47.02;;
43787;Laerm;29409;49.306;8.500;2023-08-20T05:47:29;43.45;41.82;46.23;;
43787;Laerm;29409;49.306;8.500;2023-08-20T05:48:29;43.46;41.30;48.43;;
43787;Laerm;29409;49.306;8.500;2023-08-20T05:49:29;43.55;41.89;48.18;;